sensor_id;sensor_type;location;lat;lon;timestamp;P1;durP1;ratioP1;P2;durP2;ratioP2
70796;SDS011;63842;52.144;5.360;2023-01-24T00:00:20;19.73;;;7.85;;
70796;SDS011;63842;52.144;5.360;2023-01-24T00:02:48;21.05;;;8.27;;
70796;SDS011;63842;52.144;5.360;2023-01-24T00:05:15;18.85;;;7.68;;
70796;SDS011;63842;52.144;5.360;2023-01-24T00:07:42;20.05;;;8.20;;
70796;SDS011;63842;52.144;5.360;2023-01-24T00:10:10;17.55;;;7.20;;
70796;SDS011;63842;52.144;5.360;2023-01-24T00:12:37;17.30;;;7.93;;
70796;SDS011;63842;52.144;5.360;2023-01-24T00:15:05;20.05;;;8.50;;
70796;SDS011;63842;52.144;5.360;2023-01-24T00:17:32;16.75;;;7.50;;
70796;SDS011;63842;52.144;5.360;2023-01-24T00:19:59;17.85;;;7.25;;
70796;SDS011;63842;52.144;5.360;2023-01-24T00:22:27;20.42;;;8.25;;
70796;SDS011;63842;52.144;5.360;2023-01-24T00:24:54;17.88;;;6.85;;
70796;SDS011;63842;52.144;5.360;2023-01-24T00:27:21;18.20;;;7.53;;
70796;SDS011;63842;52.144;5.360;2023-01-24T00:29:50;19.27;;;7.75;;
70796;SDS011;63842;52.144;5.360;2023-01-24T00:32:19;18.80;;;7.53;;
70796;SDS011;63842;52.144;5.360;2023-01-24T00:34:47;18.38;;;7.65;;
70796;SDS011;63842;52.144;5.360;2023-01-24T00:37:14;19.55;;;7.55;;
70796;SDS011;63842;52.144;5.360;2023-01-24T00:39:42;20.77;;;8.50;;
70796;SDS011;63842;52.144;5.360;2023-01-24T00:42:11;17.80;;;8.00;;
70796;SDS011;63842;52.144;5.360;2023-01-24T00:44:38;18.67;;;8.15;;
70796;SDS011;63842;52.144;5.360;2023-01-24T00:47:05;16.48;;;7.45;;
70796;SDS011;63842;52.144;5.360;2023-01-24T00:49:33;18.63;;;8.15;;
70796;SDS011;63842;52.144;5.360;2023-01-24T00:52:00;18.42;;;7.95;;
70796;SDS011;63842;52.144;5.360;2023-01-24T00:54:27;18.20;;;7.97;;
70796;SDS011;63842;52.144;5.360;2023-01-24T00:56:55;19.63;;;7.97;;
70796;SDS011;63842;52.144;5.360;2023-01-24T00:59:22;19.08;;;8.32;;
70796;SDS011;63842;52.144;5.360;2023-01-24T01:01:49;19.13;;;8.02;;
70796;SDS011;63842;52.144;5.360;2023-01-24T01:04:17;19.80;;;8.52;;
70796;SDS011;63842;52.144;5.360;2023-01-24T01:06:44;19.65;;;8.00;;
70796;SDS011;63842;52.144;5.360;2023-01-24T01:09:11;18.58;;;7.72;;
70796;SDS011;63842;52.144;5.360;2023-01-24T01:11:39;19.05;;;8.00;;
70796;SDS011;63842;52.144;5.360;2023-01-24T01:14:08;20.90;;;8.50;;
70796;SDS011;63842;52.144;5.360;2023-01-24T01:16:35;20.35;;;8.70;;
70796;SDS011;63842;52.144;5.360;2023-01-24T01:19:06;19.73;;;8.30;;
70796;SDS011;63842;52.144;5.360;2023-01-24T01:21:33;20.30;;;8.57;;
70796;SDS011;63842;52.144;5.360;2023-01-24T01:24:00;20.42;;;8.55;;
70796;SDS011;63842;52.144;5.360;2023-01-24T01:26:28;18.33;;;8.18;;
70796;SDS011;63842;52.144;5.360;2023-01-24T01:28:55;20.92;;;8.07;;
70796;SDS011;63842;52.144;5.360;2023-01-24T01:31:22;19.92;;;8.75;;
70796;SDS011;63842;52.144;5.360;2023-01-24T01:33:50;20.30;;;8.77;;
70796;SDS011;63842;52.144;5.360;2023-01-24T01:36:18;21.58;;;9.15;;
70796;SDS011;63842;52.144;5.360;2023-01-24T01:38:46;20.85;;;8.63;;
70796;SDS011;63842;52.144;5.360;2023-01-24T01:41:13;24.02;;;9.23;;
70796;SDS011;63842;52.144;5.360;2023-01-24T01:43:40;18.27;;;8.25;;
70796;SDS011;63842;52.144;5.360;2023-01-24T01:46:28;19.95;;;8.18;;
70796;SDS011;63842;52.144;5.360;2023-01-24T01:48:58;19.52;;;9.02;;
70796;SDS011;63842;52.144;5.360;2023-01-24T01:51:30;18.55;;;7.97;;
70796;SDS011;63842;52.144;5.360;2023-01-24T01:54:03;19.90;;;7.85;;
70796;SDS011;63842;52.144;5.360;2023-01-24T01:56:32;19.38;;;7.90;;
70796;SDS011;63842;52.144;5.360;2023-01-24T01:59:02;21.67;;;8.70;;
70796;SDS011;63842;52.144;5.360;2023-01-24T02:01:31;19.02;;;7.47;;
70796;SDS011;63842;52.144;5.360;2023-01-24T02:04:04;17.25;;;7.65;;
70796;SDS011;63842;52.144;5.360;2023-01-24T02:06:37;22.40;;;8.32;;
70796;SDS011;63842;52.144;5.360;2023-01-24T02:09:10;19.92;;;8.00;;
70796;SDS011;63842;52.144;5.360;2023-01-24T02:11:38;16.55;;;6.97;;
70796;SDS011;63842;52.144;5.360;2023-01-24T02:14:07;16.45;;;6.80;;
70796;SDS011;63842;52.144;5.360;2023-01-24T02:16:53;19.50;;;7.90;;
70796;SDS011;63842;52.144;5.360;2023-01-24T02:21:49;18.20;;;6.93;;
70796;SDS011;63842;52.144;5.360;2023-01-24T02:24:28;18.27;;;6.90;;
70796;SDS011;63842;52.144;5.360;2023-01-24T02:26:57;17.83;;;7.57;;
70796;SDS011;63842;52.144;5.360;2023-01-24T02:29:24;17.63;;;6.95;;
70796;SDS011;63842;52.144;5.360;2023-01-24T02:31:56;18.55;;;7.72;;
70796;SDS011;63842;52.144;5.360;2023-01-24T02:34:24;16.35;;;7.05;;
70796;SDS011;63842;52.144;5.360;2023-01-24T02:36:56;19.83;;;7.95;;
70796;SDS011;63842;52.144;5.360;2023-01-24T02:39:32;17.48;;;7.05;;
70796;SDS011;63842;52.144;5.360;2023-01-24T02:42:03;17.17;;;7.38;;
70796;SDS011;63842;52.144;5.360;2023-01-24T02:44:34;19.63;;;7.18;;
70796;SDS011;63842;52.144;5.360;2023-01-24T02:47:04;19.05;;;7.57;;
70796;SDS011;63842;52.144;5.360;2023-01-24T02:49:31;18.73;;;7.60;;
70796;SDS011;63842;52.144;5.360;2023-01-24T02:51:58;18.55;;;7.45;;
70796;SDS011;63842;52.144;5.360;2023-01-24T02:54:44;17.83;;;7.57;;
70796;SDS011;63842;52.144;5.360;2023-01-24T02:57:12;17.30;;;7.25;;
70796;SDS011;63842;52.144;5.360;2023-01-24T02:59:57;18.42;;;7.25;;
70796;SDS011;63842;52.144;5.360;2023-01-24T03:02:26;19.42;;;8.18;;
70796;SDS011;63842;52.144;5.360;2023-01-24T03:04:54;18.73;;;7.53;;
70796;SDS011;63842;52.144;5.360;2023-01-24T03:07:22;17.38;;;7.40;;
70796;SDS011;63842;52.144;5.360;2023-01-24T03:09:54;18.70;;;8.15;;
70796;SDS011;63842;52.144;5.360;2023-01-24T03:12:23;19.52;;;8.05;;
70796;SDS011;63842;52.144;5.360;2023-01-24T03:15:09;19.55;;;7.93;;
70796;SDS011;63842;52.144;5.360;2023-01-24T03:17:59;20.35;;;8.82;;
70796;SDS011;63842;52.144;5.360;2023-01-24T03:20:47;20.17;;;8.00;;
70796;SDS011;63842;52.144;5.360;2023-01-24T03:23:33;18.45;;;8.45;;
70796;SDS011;63842;52.144;5.360;2023-01-24T03:26:20;19.92;;;7.93;;
70796;SDS011;63842;52.144;5.360;2023-01-24T03:29:07;20.08;;;8.43;;
70796;SDS011;63842;52.144;5.360;2023-01-24T03:31:53;19.23;;;8.45;;
70796;SDS011;63842;52.144;5.360;2023-01-24T03:34:39;21.25;;;8.43;;
70796;SDS011;63842;52.144;5.360;2023-01-24T03:37:22;19.98;;;8.98;;
70796;SDS011;63842;52.144;5.360;2023-01-24T03:40:11;20.95;;;8.32;;
70796;SDS011;63842;52.144;5.360;2023-01-24T03:42:39;21.45;;;8.50;;
70796;SDS011;63842;52.144;5.360;2023-01-24T03:45:20;21.30;;;7.95;;
70796;SDS011;63842;52.144;5.360;2023-01-24T03:47:49;18.02;;;8.30;;
70796;SDS011;63842;52.144;5.360;2023-01-24T03:50:25;19.98;;;8.40;;
70796;SDS011;63842;52.144;5.360;2023-01-24T03:53:12;18.75;;;8.40;;
70796;SDS011;63842;52.144;5.360;2023-01-24T03:55:42;19.25;;;8.32;;
70796;SDS011;63842;52.144;5.360;2023-01-24T03:58:10;20.20;;;8.30;;
70796;SDS011;63842;52.144;5.360;2023-01-24T04:00:38;18.02;;;7.53;;
70796;SDS011;63842;52.144;5.360;2023-01-24T04:03:22;19.75;;;8.10;;
70796;SDS011;63842;52.144;5.360;2023-01-24T04:05:49;17.30;;;7.13;;
70796;SDS011;63842;52.144;5.360;2023-01-24T04:08:17;19.88;;;7.93;;
70796;SDS011;63842;52.144;5.360;2023-01-24T04:10:45;16.38;;;6.65;;
70796;SDS011;63842;52.144;5.360;2023-01-24T04:13:13;19.35;;;8.18;;
70796;SDS011;63842;52.144;5.360;2023-01-24T04:15:40;20.33;;;8.00;;
70796;SDS011;63842;52.144;5.360;2023-01-24T04:18:43;20.38;;;8.52;;
70796;SDS011;63842;52.144;5.360;2023-01-24T04:21:10;20.30;;;8.35;;
70796;SDS011;63842;52.144;5.360;2023-01-24T04:23:37;17.58;;;7.50;;
70796;SDS011;63842;52.144;5.360;2023-01-24T04:26:05;18.38;;;7.90;;
70796;SDS011;63842;52.144;5.360;2023-01-24T04:28:33;18.40;;;8.07;;
70796;SDS011;63842;52.144;5.360;2023-01-24T04:31:02;21.02;;;8.90;;
70796;SDS011;63842;52.144;5.360;2023-01-24T04:33:49;22.85;;;8.88;;
70796;SDS011;63842;52.144;5.360;2023-01-24T04:36:16;18.77;;;8.23;;
70796;SDS011;63842;52.144;5.360;2023-01-24T04:38:44;23.13;;;9.43;;
70796;SDS011;63842;52.144;5.360;2023-01-24T04:41:20;20.33;;;8.73;;
70796;SDS011;63842;52.144;5.360;2023-01-24T04:43:48;18.23;;;8.35;;
70796;SDS011;63842;52.144;5.360;2023-01-24T04:46:16;21.33;;;8.70;;
70796;SDS011;63842;52.144;5.360;2023-01-24T04:48:54;19.63;;;8.60;;
70796;SDS011;63842;52.144;5.360;2023-01-24T04:51:31;20.42;;;8.98;;
70796;SDS011;63842;52.144;5.360;2023-01-24T04:54:01;19.58;;;8.77;;
70796;SDS011;63842;52.144;5.360;2023-01-24T04:56:29;20.33;;;9.35;;
70796;SDS011;63842;52.144;5.360;2023-01-24T04:58:57;19.10;;;8.32;;
70796;SDS011;63842;52.144;5.360;2023-01-24T05:01:24;20.63;;;8.30;;
70796;SDS011;63842;52.144;5.360;2023-01-24T05:03:58;21.17;;;8.82;;
70796;SDS011;63842;52.144;5.360;2023-01-24T05:06:28;21.02;;;8.80;;
70796;SDS011;63842;52.144;5.360;2023-01-24T05:08:56;21.02;;;9.20;;
70796;SDS011;63842;52.144;5.360;2023-01-24T05:11:31;22.45;;;9.32;;
70796;SDS011;63842;52.144;5.360;2023-01-24T05:14:02;19.42;;;8.57;;
70796;SDS011;63842;52.144;5.360;2023-01-24T05:16:29;21.83;;;8.95;;
70796;SDS011;63842;52.144;5.360;2023-01-24T05:18:57;21.80;;;9.13;;
70796;SDS011;63842;52.144;5.360;2023-01-24T05:21:25;23.13;;;9.38;;
70796;SDS011;63842;52.144;5.360;2023-01-24T05:23:52;21.13;;;9.13;;
70796;SDS011;63842;52.144;5.360;2023-01-24T05:26:23;19.95;;;8.93;;
70796;SDS011;63842;52.144;5.360;2023-01-24T05:28:51;22.40;;;9.00;;
70796;SDS011;63842;52.144;5.360;2023-01-24T05:31:19;20.20;;;9.18;;
70796;SDS011;63842;52.144;5.360;2023-01-24T05:33:47;23.38;;;9.63;;
70796;SDS011;63842;52.144;5.360;2023-01-24T05:36:19;24.08;;;9.90;;
70796;SDS011;63842;52.144;5.360;2023-01-24T05:38:47;23.02;;;9.93;;
70796;SDS011;63842;52.144;5.360;2023-01-24T05:41:16;23.80;;;9.55;;
70796;SDS011;63842;52.144;5.360;2023-01-24T05:43:44;23.05;;;9.65;;
70796;SDS011;63842;52.144;5.360;2023-01-24T05:46:14;25.55;;;10.20;;
70796;SDS011;63842;52.144;5.360;2023-01-24T05:48:50;23.45;;;9.93;;
70796;SDS011;63842;52.144;5.360;2023-01-24T05:51:18;25.88;;;10.93;;
70796;SDS011;63842;52.144;5.360;2023-01-24T05:53:46;22.40;;;9.52;;
70796;SDS011;63842;52.144;5.360;2023-01-24T05:56:27;23.98;;;9.88;;
70796;SDS011;63842;52.144;5.360;2023-01-24T05:58:55;22.48;;;9.75;;
70796;SDS011;63842;52.144;5.360;2023-01-24T06:01:22;24.88;;;10.18;;
70796;SDS011;63842;52.144;5.360;2023-01-24T06:03:51;24.70;;;9.85;;
70796;SDS011;63842;52.144;5.360;2023-01-24T06:06:21;22.38;;;9.57;;
70796;SDS011;63842;52.144;5.360;2023-01-24T06:08:49;23.60;;;9.38;;
70796;SDS011;63842;52.144;5.360;2023-01-24T06:11:23;24.45;;;9.50;;
70796;SDS011;63842;52.144;5.360;2023-01-24T06:14:01;22.13;;;9.00;;
70796;SDS011;63842;52.144;5.360;2023-01-24T06:16:30;24.55;;;9.85;;
70796;SDS011;63842;52.144;5.360;2023-01-24T06:18:57;23.95;;;9.57;;
70796;SDS011;63842;52.144;5.360;2023-01-24T06:24:01;22.88;;;9.32;;
70796;SDS011;63842;52.144;5.360;2023-01-24T06:26:40;21.45;;;9.05;;
70796;SDS011;63842;52.144;5.360;2023-01-24T06:29:11;24.25;;;10.00;;
70796;SDS011;63842;52.144;5.360;2023-01-24T06:31:46;22.90;;;10.10;;
70796;SDS011;63842;52.144;5.360;2023-01-24T06:34:58;25.33;;;10.10;;
70796;SDS011;63842;52.144;5.360;2023-01-24T06:39:49;28.70;;;11.70;;
70796;SDS011;63842;52.144;5.360;2023-01-24T06:42:18;23.85;;;10.65;;
70796;SDS011;63842;52.144;5.360;2023-01-24T06:44:45;24.42;;;10.57;;
70796;SDS011;63842;52.144;5.360;2023-01-24T06:47:13;27.02;;;11.75;;
70796;SDS011;63842;52.144;5.360;2023-01-24T06:49:40;29.08;;;12.95;;
70796;SDS011;63842;52.144;5.360;2023-01-24T06:52:08;25.48;;;11.77;;
70796;SDS011;63842;52.144;5.360;2023-01-24T06:54:35;25.67;;;11.25;;
70796;SDS011;63842;52.144;5.360;2023-01-24T06:57:02;24.20;;;9.38;;
70796;SDS011;63842;52.144;5.360;2023-01-24T06:59:30;24.80;;;10.73;;
70796;SDS011;63842;52.144;5.360;2023-01-24T07:01:57;28.05;;;11.75;;
70796;SDS011;63842;52.144;5.360;2023-01-24T07:04:24;24.80;;;11.20;;
70796;SDS011;63842;52.144;5.360;2023-01-24T07:06:51;26.08;;;10.82;;
70796;SDS011;63842;52.144;5.360;2023-01-24T07:09:19;28.33;;;11.05;;
70796;SDS011;63842;52.144;5.360;2023-01-24T07:11:47;25.48;;;11.05;;
70796;SDS011;63842;52.144;5.360;2023-01-24T07:14:18;26.33;;;10.43;;
70796;SDS011;63842;52.144;5.360;2023-01-24T07:16:46;22.27;;;9.90;;
70796;SDS011;63842;52.144;5.360;2023-01-24T07:19:14;21.70;;;9.70;;
70796;SDS011;63842;52.144;5.360;2023-01-24T07:21:42;22.08;;;9.23;;
70796;SDS011;63842;52.144;5.360;2023-01-24T07:24:15;24.17;;;10.20;;
70796;SDS011;63842;52.144;5.360;2023-01-24T07:26:43;24.80;;;10.48;;
70796;SDS011;63842;52.144;5.360;2023-01-24T07:29:10;23.55;;;9.65;;
70796;SDS011;63842;52.144;5.360;2023-01-24T07:31:37;23.55;;;9.77;;
70796;SDS011;63842;52.144;5.360;2023-01-24T07:34:05;26.30;;;10.40;;
70796;SDS011;63842;52.144;5.360;2023-01-24T07:36:32;26.30;;;10.65;;
70796;SDS011;63842;52.144;5.360;2023-01-24T07:39:00;23.63;;;9.98;;
70796;SDS011;63842;52.144;5.360;2023-01-24T07:41:28;25.45;;;9.52;;
70796;SDS011;63842;52.144;5.360;2023-01-24T07:44:02;23.38;;;9.02;;
70796;SDS011;63842;52.144;5.360;2023-01-24T07:46:32;26.65;;;10.27;;
70796;SDS011;63842;52.144;5.360;2023-01-24T07:48:59;24.20;;;9.90;;
70796;SDS011;63842;52.144;5.360;2023-01-24T07:51:27;22.70;;;10.20;;
70796;SDS011;63842;52.144;5.360;2023-01-24T07:53:54;21.90;;;9.52;;
70796;SDS011;63842;52.144;5.360;2023-01-24T07:56:21;24.35;;;9.30;;
70796;SDS011;63842;52.144;5.360;2023-01-24T08:01:22;20.42;;;8.85;;
70796;SDS011;63842;52.144;5.360;2023-01-24T08:03:49;22.85;;;9.73;;
70796;SDS011;63842;52.144;5.360;2023-01-24T08:06:17;24.13;;;9.63;;
70796;SDS011;63842;52.144;5.360;2023-01-24T08:08:44;22.80;;;9.40;;
70796;SDS011;63842;52.144;5.360;2023-01-24T08:11:12;23.65;;;10.00;;
70796;SDS011;63842;52.144;5.360;2023-01-24T08:13:42;24.70;;;9.60;;
70796;SDS011;63842;52.144;5.360;2023-01-24T08:16:10;25.70;;;10.32;;
70796;SDS011;63842;52.144;5.360;2023-01-24T08:18:37;23.60;;;9.10;;
70796;SDS011;63842;52.144;5.360;2023-01-24T08:21:05;23.60;;;9.20;;
70796;SDS011;63842;52.144;5.360;2023-01-24T08:23:32;21.52;;;9.55;;
70796;SDS011;63842;52.144;5.360;2023-01-24T08:26:00;22.55;;;9.05;;
70796;SDS011;63842;52.144;5.360;2023-01-24T08:28:28;23.65;;;9.32;;
70796;SDS011;63842;52.144;5.360;2023-01-24T08:30:57;25.23;;;9.98;;
70796;SDS011;63842;52.144;5.360;2023-01-24T08:33:25;22.63;;;9.30;;
70796;SDS011;63842;52.144;5.360;2023-01-24T08:35:52;22.27;;;9.63;;
70796;SDS011;63842;52.144;5.360;2023-01-24T08:38:19;24.08;;;10.48;;
70796;SDS011;63842;52.144;5.360;2023-01-24T08:40:47;23.63;;;9.80;;
70796;SDS011;63842;52.144;5.360;2023-01-24T08:43:16;21.52;;;9.40;;
70796;SDS011;63842;52.144;5.360;2023-01-24T08:45:43;23.08;;;9.20;;
70796;SDS011;63842;52.144;5.360;2023-01-24T08:48:11;21.67;;;9.23;;
70796;SDS011;63842;52.144;5.360;2023-01-24T08:50:38;24.45;;;9.77;;
70796;SDS011;63842;52.144;5.360;2023-01-24T08:53:06;22.48;;;8.50;;
70796;SDS011;63842;52.144;5.360;2023-01-24T08:55:33;20.98;;;8.73;;
70796;SDS011;63842;52.144;5.360;2023-01-24T08:58:02;24.67;;;9.57;;
70796;SDS011;63842;52.144;5.360;2023-01-24T09:00:30;21.73;;;9.40;;
70796;SDS011;63842;52.144;5.360;2023-01-24T09:02:57;20.63;;;9.20;;
70796;SDS011;63842;52.144;5.360;2023-01-24T09:05:27;23.23;;;9.25;;
70796;SDS011;63842;52.144;5.360;2023-01-24T09:07:55;22.85;;;9.55;;
70796;SDS011;63842;52.144;5.360;2023-01-24T09:10:22;21.55;;;8.32;;
70796;SDS011;63842;52.144;5.360;2023-01-24T09:12:49;21.27;;;8.50;;
70796;SDS011;63842;52.144;5.360;2023-01-24T09:15:17;25.35;;;9.90;;
70796;SDS011;63842;52.144;5.360;2023-01-24T09:17:44;22.95;;;9.27;;
70796;SDS011;63842;52.144;5.360;2023-01-24T09:20:11;22.73;;;9.32;;
70796;SDS011;63842;52.144;5.360;2023-01-24T09:22:39;23.17;;;9.50;;
70796;SDS011;63842;52.144;5.360;2023-01-24T09:25:06;21.00;;;9.30;;
70796;SDS011;63842;52.144;5.360;2023-01-24T09:27:35;22.02;;;8.95;;
70796;SDS011;63842;52.144;5.360;2023-01-24T09:30:02;20.38;;;8.63;;
70796;SDS011;63842;52.144;5.360;2023-01-24T09:32:34;19.35;;;8.48;;
70796;SDS011;63842;52.144;5.360;2023-01-24T09:35:01;21.88;;;8.43;;
70796;SDS011;63842;52.144;5.360;2023-01-24T09:37:29;21.70;;;8.63;;
70796;SDS011;63842;52.144;5.360;2023-01-24T09:39:56;22.08;;;8.73;;
70796;SDS011;63842;52.144;5.360;2023-01-24T09:42:39;20.83;;;9.13;;
70796;SDS011;63842;52.144;5.360;2023-01-24T09:50:18;21.77;;;8.63;;
70796;SDS011;63842;52.144;5.360;2023-01-24T09:52:48;21.75;;;8.73;;
70796;SDS011;63842;52.144;5.360;2023-01-24T09:55:39;20.58;;;8.65;;
70796;SDS011;63842;52.144;5.360;2023-01-24T09:58:20;21.60;;;8.55;;
70796;SDS011;63842;52.144;5.360;2023-01-24T10:00:52;22.83;;;8.82;;
70796;SDS011;63842;52.144;5.360;2023-01-24T10:03:21;20.60;;;8.15;;
70796;SDS011;63842;52.144;5.360;2023-01-24T10:05:56;25.92;;;9.52;;
70796;SDS011;63842;52.144;5.360;2023-01-24T10:16:31;21.25;;;8.38;;
70796;SDS011;63842;52.144;5.360;2023-01-24T10:19:10;23.25;;;8.60;;
70796;SDS011;63842;52.144;5.360;2023-01-24T10:24:16;21.67;;;8.70;;
70796;SDS011;63842;52.144;5.360;2023-01-24T10:26:51;22.30;;;9.15;;
70796;SDS011;63842;52.144;5.360;2023-01-24T10:31:54;22.05;;;8.73;;
70796;SDS011;63842;52.144;5.360;2023-01-24T10:36:51;24.23;;;8.98;;
70796;SDS011;63842;52.144;5.360;2023-01-24T10:39:20;22.00;;;8.30;;
70796;SDS011;63842;52.144;5.360;2023-01-24T10:41:47;21.90;;;9.07;;
70796;SDS011;63842;52.144;5.360;2023-01-24T10:44:24;24.05;;;8.93;;
70796;SDS011;63842;52.144;5.360;2023-01-24T10:49:40;23.20;;;9.02;;
70796;SDS011;63842;52.144;5.360;2023-01-24T11:00:06;19.40;;;8.32;;
70796;SDS011;63842;52.144;5.360;2023-01-24T11:02:44;20.00;;;7.90;;
70796;SDS011;63842;52.144;5.360;2023-01-24T11:05:13;18.95;;;7.45;;
70796;SDS011;63842;52.144;5.360;2023-01-24T11:07:44;19.33;;;8.18;;
70796;SDS011;63842;52.144;5.360;2023-01-24T11:15:27;18.63;;;8.25;;
70796;SDS011;63842;52.144;5.360;2023-01-24T11:18:16;19.38;;;7.57;;
70796;SDS011;63842;52.144;5.360;2023-01-24T11:20:45;19.63;;;8.27;;
70796;SDS011;63842;52.144;5.360;2023-01-24T11:23:19;19.23;;;7.60;;
70796;SDS011;63842;52.144;5.360;2023-01-24T11:25:57;19.73;;;7.50;;
70796;SDS011;63842;52.144;5.360;2023-01-24T11:28:28;20.55;;;8.15;;
70796;SDS011;63842;52.144;5.360;2023-01-24T11:30:56;20.15;;;8.18;;
70796;SDS011;63842;52.144;5.360;2023-01-24T11:36:06;20.73;;;8.38;;
70796;SDS011;63842;52.144;5.360;2023-01-24T11:38:40;19.48;;;7.78;;
70796;SDS011;63842;52.144;5.360;2023-01-24T11:41:09;22.27;;;8.07;;
70796;SDS011;63842;52.144;5.360;2023-01-24T11:43:41;19.85;;;8.13;;
70796;SDS011;63842;52.144;5.360;2023-01-24T11:54:09;21.38;;;8.10;;
70796;SDS011;63842;52.144;5.360;2023-01-24T12:06:43;22.95;;;8.93;;
70796;SDS011;63842;52.144;5.360;2023-01-24T12:22:55;23.30;;;8.88;;
70796;SDS011;63842;52.144;5.360;2023-01-24T12:25:25;22.90;;;8.57;;
70796;SDS011;63842;52.144;5.360;2023-01-24T12:28:04;24.52;;;9.48;;
70796;SDS011;63842;52.144;5.360;2023-01-24T12:35:40;20.20;;;8.65;;
70796;SDS011;63842;52.144;5.360;2023-01-24T12:43:04;22.70;;;9.23;;
70796;SDS011;63842;52.144;5.360;2023-01-24T12:48:16;20.95;;;9.25;;
70796;SDS011;63842;52.144;5.360;2023-01-24T12:50:52;22.40;;;8.88;;
70796;SDS011;63842;52.144;5.360;2023-01-24T12:53:23;21.55;;;8.55;;
70796;SDS011;63842;52.144;5.360;2023-01-24T12:56:09;20.85;;;8.73;;
70796;SDS011;63842;52.144;5.360;2023-01-24T12:58:42;21.52;;;8.68;;
70796;SDS011;63842;52.144;5.360;2023-01-24T13:11:43;21.45;;;8.45;;
70796;SDS011;63842;52.144;5.360;2023-01-24T13:14:17;20.20;;;7.88;;
70796;SDS011;63842;52.144;5.360;2023-01-24T13:19:26;22.33;;;9.10;;
70796;SDS011;63842;52.144;5.360;2023-01-24T13:24:50;23.05;;;8.27;;
70796;SDS011;63842;52.144;5.360;2023-01-24T13:29:59;19.48;;;8.27;;
70796;SDS011;63842;52.144;5.360;2023-01-24T13:32:27;23.55;;;9.00;;
70796;SDS011;63842;52.144;5.360;2023-01-24T13:34:56;21.92;;;8.80;;
70796;SDS011;63842;52.144;5.360;2023-01-24T13:37:24;20.80;;;7.95;;
70796;SDS011;63842;52.144;5.360;2023-01-24T13:39:59;22.08;;;8.95;;
70796;SDS011;63842;52.144;5.360;2023-01-24T13:42:31;21.83;;;8.80;;
70796;SDS011;63842;52.144;5.360;2023-01-24T13:45:10;20.48;;;8.50;;
70796;SDS011;63842;52.144;5.360;2023-01-24T13:47:46;20.15;;;8.63;;
70796;SDS011;63842;52.144;5.360;2023-01-24T13:50:15;19.92;;;7.70;;
70796;SDS011;63842;52.144;5.360;2023-01-24T13:52:44;20.20;;;8.38;;
70796;SDS011;63842;52.144;5.360;2023-01-24T14:00:45;19.50;;;8.63;;
70796;SDS011;63842;52.144;5.360;2023-01-24T14:03:17;21.88;;;8.52;;
70796;SDS011;63842;52.144;5.360;2023-01-24T14:05:53;21.17;;;9.30;;
70796;SDS011;63842;52.144;5.360;2023-01-24T14:14:21;21.15;;;8.63;;
70796;SDS011;63842;52.144;5.360;2023-01-24T14:21:35;20.10;;;9.13;;
70796;SDS011;63842;52.144;5.360;2023-01-24T14:24:20;22.67;;;9.55;;
70796;SDS011;63842;52.144;5.360;2023-01-24T14:26:50;22.48;;;8.77;;
70796;SDS011;63842;52.144;5.360;2023-01-24T14:29:18;22.58;;;8.77;;
70796;SDS011;63842;52.144;5.360;2023-01-24T14:31:46;21.00;;;8.95;;
70796;SDS011;63842;52.144;5.360;2023-01-24T14:34:18;20.27;;;8.63;;
70796;SDS011;63842;52.144;5.360;2023-01-24T14:36:48;23.52;;;8.95;;
70796;SDS011;63842;52.144;5.360;2023-01-24T14:39:24;24.88;;;10.05;;
70796;SDS011;63842;52.144;5.360;2023-01-24T14:41:52;23.10;;;9.43;;
70796;SDS011;63842;52.144;5.360;2023-01-24T14:44:22;22.42;;;9.50;;
70796;SDS011;63842;52.144;5.360;2023-01-24T14:49:28;22.85;;;9.73;;
70796;SDS011;63842;52.144;5.360;2023-01-24T14:51:56;21.48;;;9.18;;
70796;SDS011;63842;52.144;5.360;2023-01-24T14:54:45;21.13;;;8.93;;
70796;SDS011;63842;52.144;5.360;2023-01-24T14:57:23;24.02;;;9.90;;
70796;SDS011;63842;52.144;5.360;2023-01-24T15:05:00;21.75;;;8.95;;
70796;SDS011;63842;52.144;5.360;2023-01-24T15:07:28;23.10;;;9.68;;
70796;SDS011;63842;52.144;5.360;2023-01-24T15:09:55;21.90;;;9.45;;
70796;SDS011;63842;52.144;5.360;2023-01-24T15:12:32;22.17;;;9.23;;
70796;SDS011;63842;52.144;5.360;2023-01-24T15:15:00;23.80;;;10.73;;
70796;SDS011;63842;52.144;5.360;2023-01-24T15:17:29;24.52;;;10.52;;
70796;SDS011;63842;52.144;5.360;2023-01-24T15:19:57;24.08;;;10.65;;
70796;SDS011;63842;52.144;5.360;2023-01-24T15:22:26;20.63;;;8.77;;
70796;SDS011;63842;52.144;5.360;2023-01-24T15:24:54;22.65;;;10.27;;
70796;SDS011;63842;52.144;5.360;2023-01-24T15:32:43;21.83;;;9.48;;
70796;SDS011;63842;52.144;5.360;2023-01-24T15:35:21;24.58;;;9.88;;
70796;SDS011;63842;52.144;5.360;2023-01-24T15:38:02;25.00;;;10.68;;
70796;SDS011;63842;52.144;5.360;2023-01-24T15:40:30;25.67;;;10.80;;
70796;SDS011;63842;52.144;5.360;2023-01-24T15:42:58;26.77;;;11.13;;
70796;SDS011;63842;52.144;5.360;2023-01-24T15:45:49;24.27;;;9.98;;
70796;SDS011;63842;52.144;5.360;2023-01-24T15:48:21;21.40;;;9.48;;
70796;SDS011;63842;52.144;5.360;2023-01-24T15:50:50;24.88;;;10.73;;
70796;SDS011;63842;52.144;5.360;2023-01-24T15:53:33;24.15;;;10.02;;
70796;SDS011;63842;52.144;5.360;2023-01-24T15:56:01;23.35;;;10.45;;
70796;SDS011;63842;52.144;5.360;2023-01-24T15:58:30;22.10;;;9.25;;
70796;SDS011;63842;52.144;5.360;2023-01-24T16:00:59;24.63;;;10.00;;
70796;SDS011;63842;52.144;5.360;2023-01-24T16:03:26;24.45;;;9.63;;
70796;SDS011;63842;52.144;5.360;2023-01-24T16:05:54;23.58;;;9.65;;
70796;SDS011;63842;52.144;5.360;2023-01-24T16:08:21;22.70;;;9.98;;
70796;SDS011;63842;52.144;5.360;2023-01-24T16:10:51;22.13;;;9.55;;
70796;SDS011;63842;52.144;5.360;2023-01-24T16:13:28;26.25;;;10.13;;
70796;SDS011;63842;52.144;5.360;2023-01-24T16:15:56;25.65;;;10.07;;
70796;SDS011;63842;52.144;5.360;2023-01-24T16:18:24;27.52;;;10.20;;
70796;SDS011;63842;52.144;5.360;2023-01-24T16:20:52;27.80;;;10.52;;
70796;SDS011;63842;52.144;5.360;2023-01-24T16:23:19;31.67;;;11.95;;
70796;SDS011;63842;52.144;5.360;2023-01-24T16:25:47;26.45;;;10.90;;
70796;SDS011;63842;52.144;5.360;2023-01-24T16:28:17;28.85;;;11.75;;
70796;SDS011;63842;52.144;5.360;2023-01-24T16:30:45;24.90;;;10.05;;
70796;SDS011;63842;52.144;5.360;2023-01-24T16:33:16;27.30;;;11.18;;
70796;SDS011;63842;52.144;5.360;2023-01-24T16:35:44;28.48;;;11.60;;
70796;SDS011;63842;52.144;5.360;2023-01-24T16:38:11;28.42;;;11.50;;
70796;SDS011;63842;52.144;5.360;2023-01-24T16:40:39;25.15;;;10.35;;
70796;SDS011;63842;52.144;5.360;2023-01-24T16:43:16;25.90;;;10.93;;
70796;SDS011;63842;52.144;5.360;2023-01-24T16:45:45;26.55;;;10.77;;
70796;SDS011;63842;52.144;5.360;2023-01-24T16:48:13;25.75;;;10.43;;
70796;SDS011;63842;52.144;5.360;2023-01-24T16:50:41;25.48;;;10.65;;
70796;SDS011;63842;52.144;5.360;2023-01-24T16:53:09;23.50;;;9.68;;
70796;SDS011;63842;52.144;5.360;2023-01-24T16:55:36;26.67;;;11.07;;
70796;SDS011;63842;52.144;5.360;2023-01-24T16:58:05;28.70;;;11.57;;
70796;SDS011;63842;52.144;5.360;2023-01-24T17:00:32;24.95;;;11.32;;
70796;SDS011;63842;52.144;5.360;2023-01-24T17:03:00;25.63;;;10.20;;
70796;SDS011;63842;52.144;5.360;2023-01-24T17:05:28;24.98;;;10.70;;
70796;SDS011;63842;52.144;5.360;2023-01-24T17:07:56;24.33;;;10.35;;
70796;SDS011;63842;52.144;5.360;2023-01-24T17:10:24;24.15;;;10.70;;
70796;SDS011;63842;52.144;5.360;2023-01-24T17:12:51;24.90;;;10.45;;